Time;durP1;ratioP1;P1;durP2;ratioP2;P2;SDS_P1;SDS_P2;PMS_P1;PMS_P2;Temp;Humidity;BMP_temperature;BMP_pressure;BME280_temperature;BME280_humidity;BME280_pressure;Samples;Min_cycle;Max_cycle;Signal;HPM_P1;HPM_P2
2023/11/28 00:00:22;;;;;;;0.60;0.60;;;;;;;2.04;100.00;94568.38;29394;207;64013;-55
2023/11/28 00:00:54;;;;;;;0.60;0.60;;;;;;;2.06;100.00;94563.53;29395;230;63004;-54
2023/11/28 00:01:25;;;;;;;0.60;0.60;;;;;;;2.11;100.00;94569.56;29395;197;63009;-54
2023/11/28 00:01:56;;;;;;;0.60;0.60;;;;;;;2.13;100.00;94571.94;29395;217;63004;-55
2023/11/28 00:02:27;;;;;;;0.60;0.60;;;;;;;2.09;100.00;94569.06;29395;205;63008;-55
2023/11/28 00:02:59;;;;;;;0.60;0.60;;;;;;;2.12;100.00;94565.00;29395;219;63011;-54
2023/11/28 00:03:32;;;;;;;0.60;0.60;;;;;;;2.14;100.00;94570.84;29395;324;63009;-54
2023/11/28 00:04:04;;;;;;;0.70;0.70;;;;;;;2.11;100.00;94572.22;29395;299;63011;-55
2023/11/28 00:04:36;;;;;;;0.70;0.70;;;;;;;2.09;100.00;94562.91;29395;218;63019;-54
2023/11/28 00:05:08;;;;;;;0.60;0.60;;;;;;;2.09;100.00;94568.25;29395;202;63005;-54
2023/11/28 00:05:40;;;;;;;0.60;0.60;;;;;;;2.07;100.00;94565.13;29394;233;64013;-54
2023/11/28 00:06:16;;;;;;;0.60;0.60;;;;;;;2.04;100.00;94560.34;29395;218;63014;-55
2023/11/28 00:06:49;;;;;;;0.60;0.60;;;;;;;2.08;100.00;94561.34;29395;385;63009;-55
2023/11/28 00:07:20;;;;;;;0.57;0.57;;;;;;;2.06;100.00;94556.28;29395;198;63017;-55
2023/11/28 00:07:51;;;;;;;0.70;0.70;;;;;;;2.05;100.00;94556.59;29395;282;63009;-55
2023/11/28 00:08:23;;;;;;;0.60;0.60;;;;;;;2.02;100.00;94555.28;29395;203;63004;-55
2023/11/28 00:08:55;;;;;;;0.60;0.60;;;;;;;2.04;100.00;94555.00;29395;217;63009;-55
2023/11/28 00:09:26;;;;;;;0.70;0.70;;;;;;;2.05;100.00;94551.25;29395;227;63004;-55
2023/11/28 00:09:57;;;;;;;0.60;0.60;;;;;;;2.07;100.00;94551.75;29395;219;63008;-54
2023/11/28 00:10:29;;;;;;;6.35;6.07;;;;;;;2.06;100.00;94547.47;29395;237;63005;-54
2023/11/28 00:11:00;;;;;;;0.68;0.68;;;;;;;2.09;100.00;94554.88;29394;227;64014;-55
2023/11/28 00:11:31;;;;;;;0.60;0.60;;;;;;;2.07;100.00;94555.22;29395;229;63005;-54
2023/11/28 00:12:03;;;;;;;0.60;0.60;;;;;;;2.03;100.00;94553.41;29394;226;64014;-54
2023/11/28 00:12:35;;;;;;;0.60;0.60;;;;;;;2.01;100.00;94549.16;29395;210;63005;-55
2023/11/28 00:13:07;;;;;;;0.60;0.60;;;;;;;2.03;100.00;94548.06;29395;218;63009;-54
2023/11/28 00:13:38;;;;;;;0.60;0.60;;;;;;;2.00;100.00;94547.56;29395;196;63005;-55
2023/11/28 00:14:10;;;;;;;0.60;0.60;;;;;;;2.00;100.00;94554.78;29395;221;63024;-56
2023/11/28 00:14:41;;;;;;;0.60;0.60;;;;;;;2.08;100.00;94540.72;29395;215;63004;-55
2023/11/28 00:15:14;;;;;;;0.60;0.60;;;;;;;2.09;100.00;94541.50;29395;225;63009;-55
2023/11/28 00:15:47;;;;;;;0.65;0.65;;;;;;;2.05;100.00;94545.88;29394;202;64009;-55
2023/11/28 00:16:19;;;;;;;0.60;0.60;;;;;;;2.00;100.00;94544.09;29395;228;63018;-54
2023/11/28 00:16:50;;;;;;;0.60;0.60;;;;;;;1.97;100.00;94548.16;29395;212;63004;-55
2023/11/28 00:17:21;;;;;;;0.60;0.60;;;;;;;1.96;100.00;94538.53;29394;227;64013;-54
2023/11/28 00:17:53;;;;;;;0.60;0.60;;;;;;;1.96;100.00;94543.09;29395;202;63004;-55
2023/11/28 00:18:25;;;;;;;0.60;0.60;;;;;;;1.95;100.00;94542.31;29395;226;63009;-55
2023/11/28 00:18:56;;;;;;;0.60;0.60;;;;;;;1.98;100.00;94541.72;29395;292;63005;-54
2023/11/28 00:19:27;;;;;;;0.60;0.60;;;;;;;2.00;100.00;94547.56;29395;209;63009;-54
2023/11/28 00:19:58;;;;;;;0.60;0.60;;;;;;;1.99;100.00;94543.31;29394;266;64005;-54
2023/11/28 00:20:30;;;;;;;0.60;0.60;;;;;;;1.98;100.00;94541.72;29395;220;63009;-55
2023/11/28 00:21:01;;;;;;;0.60;0.60;;;;;;;1.97;100.00;94540.12;29395;197;63005;-56
2023/11/28 00:21:32;;;;;;;0.60;0.60;;;;;;;1.98;100.00;94538.25;29395;253;63009;-55
2023/11/28 00:22:04;;;;;;;0.60;0.60;;;;;;;1.97;100.00;94542.81;29395;239;63004;-55
2023/11/28 00:22:36;;;;;;;0.60;0.60;;;;;;;1.98;100.00;94535.56;29394;255;64013;-55
2023/11/28 00:23:09;;;;;;;0.60;0.60;;;;;;;1.99;100.00;94531.81;29395;244;63004;-55
2023/11/28 00:23:41;;;;;;;0.60;0.60;;;;;;;2.03;100.00;94540.84;29395;222;63009;-54
2023/11/28 00:24:12;;;;;;;0.60;0.60;;;;;;;2.04;100.00;94533.59;29395;207;63013;-54
2023/11/28 00:24:44;;;;;;;0.60;0.60;;;;;;;2.05;100.00;94535.19;29395;206;63008;-55
2023/11/28 00:25:18;;;;;;;0.60;0.60;;;;;;;2.03;100.00;94535.47;29395;281;63004;-55
2023/11/28 00:25:49;;;;;;;0.60;0.60;;;;;;;2.03;100.00;94540.03;29395;228;63023;-54
2023/11/28 00:26:20;;;;;;;0.60;0.60;;;;;;;2.03;100.00;94542.72;29395;202;63005;-54
2023/11/28 00:26:52;;;;;;;0.60;0.60;;;;;;;2.01;100.00;94535.78;29394;199;64013;-54
2023/11/28 00:27:23;;;;;;;0.60;0.60;;;;;;;1.98;100.00;94541.72;29395;236;63005;-54
2023/11/28 00:27:56;;;;;;;0.60;0.60;;;;;;;1.97;100.00;94534.78;29395;203;63009;-55
2023/11/28 00:28:27;;;;;;;0.60;0.60;;;;;;;1.97;100.00;94534.78;29395;300;63005;-54
2023/11/28 00:28:59;;;;;;;0.60;0.60;;;;;;;1.96;100.00;94541.22;29395;225;63009;-55
2023/11/28 00:29:30;;;;;;;0.60;0.60;;;;;;;1.97;100.00;94529.44;29395;251;63004;-54
2023/11/28 00:30:05;;;;;;;0.60;0.60;;;;;;;1.98;100.00;94531.03;29395;196;63009;-57
2023/11/28 00:30:36;;;;;;;0.60;0.60;;;;;;;1.98;100.00;94531.03;29395;197;63004;-54
2023/11/28 00:31:08;;;;;;;0.60;0.60;;;;;;;1.99;100.00;94532.59;29395;203;63009;-57
2023/11/28 00:31:42;;;;;;;0.60;0.60;;;;;;;2.00;100.00;94528.84;29394;211;64008;-55
2023/11/28 00:32:13;;;;;;;0.60;0.60;;;;;;;1.98;100.00;94528.34;29395;227;63008;-54
2023/11/28 00:32:46;;;;;;;0.60;0.60;;;;;;;1.99;100.00;94527.25;29395;214;63005;-55
2023/11/28 00:33:18;;;;;;;0.60;0.60;;;;;;;1.98;100.00;94525.66;29394;239;64014;-55
2023/11/28 00:33:52;;;;;;;0.60;0.60;;;;;;;1.98;100.00;94525.66;29395;205;63005;-53
2023/11/28 00:34:24;;;;;;;0.70;0.70;;;;;;;1.97;100.00;94524.09;29395;330;63009;-54
2023/11/28 00:34:55;;;;;;;0.60;0.60;;;;;;;2.00;100.00;94528.84;29395;196;63005;-55
2023/11/28 00:35:26;;;;;;;0.60;0.60;;;;;;;2.05;100.00;94529.84;29394;199;64013;-57
2023/11/28 00:35:57;;;;;;;0.60;0.60;;;;;;;2.08;100.00;94534.59;29395;277;63005;-55
2023/11/28 00:36:29;;;;;;;0.60;0.60;;;;;;;2.07;100.00;94535.69;29395;303;63009;-55
2023/11/28 00:37:04;;;;;;;0.60;0.60;;;;;;;2.07;100.00;94533.00;29395;273;63011;-56
2023/11/28 00:37:35;;;;;;;0.60;0.60;;;;;;;2.06;100.00;94524.19;29395;227;63020;-55
2023/11/28 00:38:07;;;;;;;0.60;0.60;;;;;;;2.08;100.00;94523.91;29394;225;64009;-55
2023/11/28 00:38:38;;;;;;;0.60;0.60;;;;;;;2.13;100.00;94518.44;29395;236;63009;-55
2023/11/28 00:39:11;;;;;;;0.60;0.60;;;;;;;2.16;100.00;94525.88;29395;204;63009;-55
2023/11/28 00:39:42;;;;;;;0.60;0.60;;;;;;;2.16;100.00;94520.50;29395;196;63008;-55
2023/11/28 00:40:14;;;;;;;0.60;0.60;;;;;;;2.13;100.00;94521.09;29395;221;63005;-55
2023/11/28 00:40:48;;;;;;;0.60;0.60;;;;;;;2.11;100.00;94523.28;29395;224;63009;-54
2023/11/28 00:41:19;;;;;;;0.70;0.70;;;;;;;2.13;100.00;94527.25;29395;281;63005;-55
2023/11/28 00:41:50;;;;;;;0.60;0.60;;;;;;;2.15;100.00;94519.72;29395;240;63009;-54
2023/11/28 00:42:22;;;;;;;0.60;0.60;;;;;;;2.18;100.00;94518.34;29395;202;63005;-54
2023/11/28 00:42:53;;;;;;;0.60;0.60;;;;;;;2.15;100.00;94517.03;29394;214;64013;-54
2023/11/28 00:43:24;;;;;;;0.60;0.60;;;;;;;2.13;100.00;94510.41;29395;257;63005;-55
2023/11/28 00:43:55;;;;;;;0.60;0.60;;;;;;;2.17;100.00;94519.41;29395;203;63009;-55
2023/11/28 00:44:27;;;;;;;0.60;0.60;;;;;;;2.27;100.00;94516.56;29395;228;63004;-65
2023/11/28 00:44:58;;;;;;;0.60;0.60;;;;;;;2.29;100.00;94514.38;29394;283;64013;-54
2023/11/28 00:45:30;;;;;;;0.62;0.62;;;;;;;2.26;100.00;94517.66;29395;220;63004;-54
2023/11/28 00:46:02;;;;;;;0.60;0.60;;;;;;;2.25;100.00;94529.44;29395;221;63009;-56
2023/11/28 00:46:33;;;;;;;0.60;0.60;;;;;;;2.26;100.00;94518.44;29395;199;63010;-55
2023/11/28 00:47:09;;;;;;;0.60;0.60;;;;;;;2.28;100.00;94516.25;29395;197;63008;-54
2023/11/28 00:47:40;;;;;;;0.60;0.60;;;;;;;2.23;100.00;94518.25;29395;212;63005;-54
2023/11/28 00:48:11;;;;;;;0.60;0.60;;;;;;;2.19;100.00;94522.59;29394;208;64014;-55
2023/11/28 00:48:43;;;;;;;0.60;0.60;;;;;;;2.16;100.00;94509.81;29395;199;63005;-55
2023/11/28 00:49:14;;;;;;;0.60;0.60;;;;;;;2.13;100.00;94526.44;29394;374;64013;-55
2023/11/28 00:49:46;;;;;;;0.60;0.60;;;;;;;2.13;100.00;94515.75;29394;332;64009;-63
2023/11/28 00:50:18;;;;;;;0.60;0.60;;;;;;;2.10;100.00;94516.34;29394;249;64013;-55
2023/11/28 00:50:50;;;;;;;0.60;0.60;;;;;;;2.09;100.00;94520.91;29395;217;63005;-55
2023/11/28 00:51:22;;;;;;;0.60;0.60;;;;;;;2.20;100.00;94513.47;29395;220;63009;-55
2023/11/28 00:51:53;;;;;;;0.60;0.60;;;;;;;2.19;100.00;94509.22;29395;216;63007;-54
2023/11/28 00:52:25;;;;;;;0.60;0.60;;;;;;;2.16;100.00;94509.81;29395;236;63009;-55
2023/11/28 00:52:56;;;;;;;0.50;0.50;;;;;;;2.13;100.00;94515.75;29395;223;63004;-54
2023/11/28 00:53:28;;;;;;;0.60;0.60;;;;;;;2.18;100.00;94521.00;29394;239;64013;-56
2023/11/28 00:53:59;;;;;;;0.60;0.60;;;;;;;2.16;100.00;94520.50;29395;215;63004;-56
2023/11/28 00:54:31;;;;;;;0.60;0.60;;;;;;;2.13;100.00;94510.41;29395;234;63008;-56
2023/11/28 00:55:02;;;;;;;0.57;0.57;;;;;;;2.10;100.00;94511.78;29395;203;63005;-55
2023/11/28 00:55:34;;;;;;;0.60;0.60;;;;;;;2.06;100.00;94510.81;29395;226;63009;-56
2023/11/28 00:56:08;;;;;;;0.60;0.60;;;;;;;2.05;100.00;94519.13;29395;227;63005;-56
2023/11/28 00:56:40;;;;;;;0.60;0.60;;;;;;;2.08;100.00;94515.88;29395;209;63009;-57
2023/11/28 00:57:12;;;;;;;0.60;0.60;;;;;;;2.08;100.00;94518.56;29395;213;63005;-55
2023/11/28 00:57:46;;;;;;;0.60;0.60;;;;;;;2.10;100.00;94505.66;29395;242;63009;-55
2023/11/28 00:58:18;;;;;;;0.60;0.60;;;;;;;2.11;100.00;94512.59;29395;197;63005;-54
2023/11/28 00:58:49;;;;;;;0.60;0.60;;;;;;;2.11;100.00;94504.56;29394;240;64013;-55
2023/11/28 00:59:21;;;;;;;0.60;0.60;;;;;;;2.11;100.00;94513.37;29395;203;63004;-55
2023/11/28 00:59:52;;;;;;;0.60;0.60;;;;;;;2.09;100.00;94504.06;29394;217;64009;-55
2023/11/28 01:00:24;;;;;;;0.60;0.60;;;;;;;2.10;100.00;94513.66;29395;209;63004;-55
2023/11/28 01:00:55;;;;;;;0.60;0.60;;;;;;;2.09;100.00;94510.19;29394;207;64013;-56
2023/11/28 01:01:27;;;;;;;0.60;0.60;;;;;;;2.11;100.00;94508.03;29395;383;63004;-55
2023/11/28 01:01:58;;;;;;;0.60;0.60;;;;;;;2.12;100.00;94508.81;29395;275;63004;-56
2023/11/28 01:02:29;;;;;;;0.60;0.60;;;;;;;2.16;100.00;94509.81;29394;291;64009;-55
2023/11/28 01:03:01;;;;;;;0.60;0.60;;;;;;;2.24;100.00;94517.16;29395;203;63020;-54
2023/11/28 01:03:33;;;;;;;0.60;0.60;;;;;;;2.28;100.00;94512.78;29395;220;63005;-54
2023/11/28 01:04:04;;;;;;;0.60;0.60;;;;;;;2.25;100.00;94497.31;29395;224;63009;-54
2023/11/28 01:04:35;;;;;;;0.60;0.60;;;;;;;2.21;100.00;94507.03;29395;331;63005;-56
2023/11/28 01:05:11;;;;;;;0.60;0.60;;;;;;;2.18;100.00;94510.31;29395;218;63009;-54
2023/11/28 01:05:43;;;;;;;0.60;0.60;;;;;;;2.14;100.00;94499.41;29394;243;64009;-54
2023/11/28 01:06:14;;;;;;;0.65;0.65;;;;;;;2.13;100.00;94502.38;29395;255;63009;-55
2023/11/28 01:06:46;;;;;;;0.60;0.60;;;;;;;2.11;100.00;94500.00;29395;203;63004;-54
2023/11/28 01:07:20;;;;;;;0.60;0.60;;;;;;;2.09;100.00;94509.41;29395;232;63014;-55
2023/11/28 01:07:52;;;;;;;0.60;0.60;;;;;;;2.09;100.00;94499.50;29395;202;63004;-54
2023/11/28 01:08:23;;;;;;;0.60;0.60;;;;;;;2.09;100.00;94498.72;29395;204;63009;-55
2023/11/28 01:08:57;;;;;;;0.60;0.60;;;;;;;2.09;100.00;94496.03;29395;337;63004;-54
2023/11/28 01:09:28;;;;;;;0.60;0.60;;;;;;;2.11;100.00;94501.88;29394;208;64013;-55
2023/11/28 01:10:00;;;;;;;0.60;0.60;;;;;;;2.11;100.00;94502.69;29395;206;63004;-54
2023/11/28 01:10:31;;;;;;;0.60;0.60;;;;;;;2.11;100.00;94509.91;29395;210;63009;-55
2023/11/28 01:11:03;;;;;;;0.60;0.60;;;;;;;2.10;100.00;94500.28;29395;300;63005;-55
2023/11/28 01:11:34;;;;;;;0.60;0.60;;;;;;;2.10;100.00;94505.66;29395;211;63009;-56
2023/11/28 01:12:06;;;;;;;0.60;0.60;;;;;;;2.09;100.00;94504.06;29395;210;63005;-55
2023/11/28 01:12:39;;;;;;;0.60;0.60;;;;;;;2.09;100.00;94504.06;29395;305;63009;-54
2023/11/28 01:13:10;;;;;;;0.60;0.60;;;;;;;2.09;100.00;94496.81;29394;209;64009;-55
2023/11/28 01:13:41;;;;;;;0.70;0.70;;;;;;;2.09;100.00;94498.72;29395;207;63009;-55
2023/11/28 01:14:13;;;;;;;0.60;0.60;;;;;;;2.10;100.00;94498.41;29395;208;63005;-55
2023/11/28 01:14:44;;;;;;;0.60;0.60;;;;;;;2.14;100.00;94507.44;29395;222;63026;-55
2023/11/28 01:15:17;;;;;;;1.08;1.08;;;;;;;2.15;100.00;94497.53;29395;226;63004;-55
2023/11/28 01:15:48;;;;;;;0.60;0.60;;;;;;;2.13;100.00;94500.50;29395;307;63016;-55
2023/11/28 01:16:19;;;;;;;0.60;0.60;;;;;;;2.18;100.00;94497.72;29395;292;63004;-55
2023/11/28 01:16:50;;;;;;;0.70;0.70;;;;;;;2.19;100.00;94498.53;29395;257;63008;-55
2023/11/28 01:17:22;;;;;;;0.60;0.60;;;;;;;2.17;100.00;94511.41;29394;280;64008;-55
2023/11/28 01:17:53;;;;;;;0.60;0.60;;;;;;;2.18;100.00;94507.63;29395;221;63009;-55
2023/11/28 01:18:24;;;;;;;0.60;0.60;;;;;;;2.16;100.00;94510.59;29395;208;63005;-54
2023/11/28 01:18:55;;;;;;;0.60;0.60;;;;;;;2.14;100.00;94503.97;29395;372;63009;-54
2023/11/28 01:19:26;;;;;;;0.60;0.60;;;;;;;2.13;100.00;94510.41;29395;213;63005;-54
2023/11/28 01:19:58;;;;;;;0.60;0.60;;;;;;;2.11;100.00;94504.56;29395;232;63009;-55
2023/11/28 01:20:29;;;;;;;0.60;0.60;;;;;;;2.09;100.00;94506.72;29395;291;63016;-55
2023/11/28 01:21:02;;;;;;;0.60;0.60;;;;;;;2.10;100.00;94505.66;29394;336;64013;-54
2023/11/28 01:21:34;;;;;;;0.60;0.60;;;;;;;2.09;100.00;94510.19;29395;207;63009;-55
2023/11/28 01:22:08;;;;;;;0.60;0.60;;;;;;;2.09;100.00;94504.84;29394;242;64013;-54
2023/11/28 01:22:40;;;;;;;0.60;0.60;;;;;;;2.13;100.00;94505.84;29394;220;64009;-54
2023/11/28 01:23:11;;;;;;;0.60;0.60;;;;;;;2.15;100.00;94503.66;29395;352;63019;-55
2023/11/28 01:23:43;;;;;;;0.60;0.60;;;;;;;2.17;100.00;94506.03;29395;220;63004;-54
2023/11/28 01:24:14;;;;;;;0.60;0.60;;;;;;;2.15;100.00;94508.22;29395;323;63009;-54
2023/11/28 01:24:45;;;;;;;0.60;0.60;;;;;;;2.15;100.00;94509.03;29395;227;63004;-55
2023/11/28 01:25:17;;;;;;;0.60;0.60;;;;;;;2.16;100.00;94509.81;29395;206;63009;-54
2023/11/28 01:25:48;;;;;;;0.60;0.60;;;;;;;2.14;100.00;94506.63;29395;238;63005;-54
2023/11/28 01:26:19;;;;;;;0.60;0.60;;;;;;;2.14;100.00;94512.00;29394;211;64014;-55
2023/11/28 01:26:50;;;;;;;0.60;0.60;;;;;;;2.13;100.00;94510.41;29395;232;63005;-54
2023/11/28 01:27:22;;;;;;;0.60;0.60;;;;;;;2.13;100.00;94510.41;29395;230;63013;-54
2023/11/28 01:27:54;;;;;;;0.60;0.60;;;;;;;2.17;100.00;94506.03;29395;211;63005;-55
2023/11/28 01:28:25;;;;;;;0.60;0.60;;;;;;;2.24;100.00;94501.09;29394;219;64013;-57
2023/11/28 01:28:57;;;;;;;0.60;0.60;;;;;;;2.29;100.00;94503.66;29395;218;63009;-55
2023/11/28 01:29:28;;;;;;;0.60;0.60;;;;;;;2.25;100.00;94508.03;29395;204;63009;-55
2023/11/28 01:29:59;;;;;;;0.60;0.60;;;;;;;2.25;100.00;94502.69;29395;209;63004;-54
2023/11/28 01:30:31;;;;;;;0.60;0.60;;;;;;;2.23;100.00;94499.50;29395;208;63009;-54
2023/11/28 01:31:02;;;;;;;0.60;0.60;;;;;;;2.22;100.00;94504.06;29395;297;63004;-54
2023/11/28 01:31:33;;;;;;;0.60;0.60;;;;;;;2.21;100.00;94501.69;29395;213;63019;-55
2023/11/28 01:32:06;;;;;;;0.60;0.60;;;;;;;2.20;100.00;94498.22;29395;210;63004;-55
2023/11/28 01:32:37;;;;;;;0.60;0.60;;;;;;;2.21;100.00;94491.00;29394;293;64013;-56
2023/11/28 01:33:09;;;;;;;0.60;0.60;;;;;;;2.21;100.00;94499.00;29394;217;64009;-54
2023/11/28 01:33:40;;;;;;;0.60;0.60;;;;;;;2.19;100.00;94498.53;29395;257;63009;-55
2023/11/28 01:34:12;;;;;;;0.60;0.60;;;;;;;2.21;100.00;94501.69;29395;309;63005;-55
2023/11/28 01:34:44;;;;;;;0.60;0.60;;;;;;;2.22;100.00;94489.91;29395;207;63009;-55
2023/11/28 01:35:15;;;;;;;0.60;0.60;;;;;;;2.20;100.00;94494.75;29395;320;63013;-55
2023/11/28 01:35:50;;;;;;;0.60;0.60;;;;;;;2.21;100.00;94496.34;29395;236;63014;-54
2023/11/28 01:36:21;;;;;;;0.60;0.60;;;;;;;2.23;100.00;94494.16;29395;197;63004;-55
2023/11/28 01:36:52;;;;;;;0.60;0.60;;;;;;;2.22;100.00;94500.59;29395;324;63009;-55
2023/11/28 01:37:24;;;;;;;0.60;0.60;;;;;;;2.19;100.00;94493.97;29395;305;63004;-54
2023/11/28 01:37:55;;;;;;;0.60;0.60;;;;;;;2.20;100.00;94492.88;29395;242;63009;-54
2023/11/28 01:38:26;;;;;;;0.60;0.60;;;;;;;2.20;100.00;94497.44;29394;208;64009;-54
2023/11/28 01:38:58;;;;;;;0.60;0.60;;;;;;;2.18;100.00;94491.59;29395;305;63008;-55
2023/11/28 01:39:29;;;;;;;0.60;0.60;;;;;;;2.17;100.00;94485.44;29395;219;63008;-54
2023/11/28 01:40:01;;;;;;;0.60;0.60;;;;;;;2.17;100.00;94500.69;29395;203;63009;-53
2023/11/28 01:40:33;;;;;;;0.60;0.60;;;;;;;2.28;100.00;94491.37;29395;227;63008;-55
2023/11/28 01:41:14;;;;;;;0.60;0.60;;;;;;;2.34;100.00;94484.84;29416;210;64013;-55
2023/11/28 01:41:47;;;;;;;0.60;0.60;;;;;;;2.32;100.00;94481.66;29395;212;63005;-55
2023/11/28 01:42:18;;;;;;;0.60;0.60;;;;;;;2.31;100.00;94482.75;29395;221;63009;-55
2023/11/28 01:42:50;;;;;;;0.60;0.60;;;;;;;2.28;100.00;94469.97;29395;202;63005;-54
2023/11/28 01:43:24;;;;;;;0.60;0.60;;;;;;;2.29;100.00;94479.59;29395;225;63009;-54
2023/11/28 01:44:03;;;;;;;0.60;0.60;;;;;;;2.29;100.00;94482.25;29395;222;63004;-54
2023/11/28 01:44:34;;;;;;;0.60;0.60;;;;;;;2.26;100.00;94472.16;29395;220;63009;-54
2023/11/28 01:45:08;;;;;;;0.60;0.60;;;;;;;2.25;100.00;94483.94;29395;224;63015;-54
2023/11/28 01:45:41;;;;;;;0.60;0.60;;;;;;;2.26;100.00;94472.16;29395;212;63009;-54
2023/11/28 01:46:13;;;;;;;0.60;0.60;;;;;;;2.29;100.00;94471.56;29395;197;63004;-53
2023/11/28 01:46:46;;;;;;;0.60;0.60;;;;;;;2.32;100.00;94476.31;29394;197;64013;-55
2023/11/28 01:47:18;;;;;;;0.60;0.60;;;;;;;2.32;100.00;94479.00;29395;216;63005;-55
2023/11/28 01:47:54;;;;;;;0.60;0.60;;;;;;;2.30;100.00;94478.50;29395;207;63015;-55
2023/11/28 01:48:26;;;;;;;0.60;0.60;;;;;;;2.29;100.00;94474.25;29395;215;63005;-55
2023/11/28 01:48:57;;;;;;;0.60;0.60;;;;;;;2.31;100.00;94474.72;29395;218;63016;-55
2023/11/28 01:49:34;;;;;;;0.57;0.57;;;;;;;2.31;100.00;94470.19;29395;204;63005;-55
2023/11/28 01:50:10;;;;;;;0.50;0.50;;;;;;;2.30;100.00;94471.25;29395;208;63009;-54
2023/11/28 01:50:42;;;;;;;0.60;0.60;;;;;;;2.29;100.00;94476.91;29395;228;63005;-55
2023/11/28 01:51:14;;;;;;;0.60;0.60;;;;;;;2.27;100.00;94474.53;29395;197;63009;-55
2023/11/28 01:51:46;;;;;;;0.60;0.60;;;;;;;2.27;100.00;94471.06;29394;203;64009;-56
2023/11/28 01:52:19;;;;;;;0.60;0.60;;;;;;;2.31;100.00;94474.72;29395;314;63023;-55
2023/11/28 01:52:51;;;;;;;0.60;0.60;;;;;;;2.31;100.00;94469.38;29395;197;63004;-54
2023/11/28 01:53:23;;;;;;;0.60;0.60;;;;;;;2.30;100.00;94473.94;29395;213;63022;-55
2023/11/28 01:53:59;;;;;;;0.60;0.60;;;;;;;2.31;100.00;94469.38;29395;211;63009;-54
2023/11/28 01:54:31;;;;;;;0.60;0.60;;;;;;;2.31;100.00;94469.38;29395;209;63009;-54
2023/11/28 01:55:04;;;;;;;0.60;0.60;;;;;;;2.31;100.00;94474.72;29395;220;63010;-55
2023/11/28 01:55:36;;;;;;;0.60;0.60;;;;;;;2.29;100.00;94471.56;29395;216;63009;-55
2023/11/28 01:56:10;;;;;;;0.60;0.60;;;;;;;2.33;100.00;94472.56;29395;203;63005;-55
2023/11/28 01:56:44;;;;;;;0.60;0.60;;;;;;;2.35;100.00;94471.16;29395;337;63017;-55
2023/11/28 01:57:16;;;;;;;0.60;0.60;;;;;;;2.34;100.00;94468.78;29394;199;64009;-55
2023/11/28 01:57:48;;;;;;;0.60;0.60;;;;;;;2.32;100.00;94468.28;29394;216;64013;-55
2023/11/28 01:58:21;;;;;;;0.60;0.60;;;;;;;2.31;100.00;94480.09;29395;210;63005;-54
2023/11/28 01:58:54;;;;;;;0.60;0.60;;;;;;;2.29;100.00;94467.00;29395;211;63015;-55
2023/11/28 01:59:26;;;;;;;0.60;0.60;;;;;;;2.31;100.00;94469.38;29395;261;63004;-55
2023/11/28 01:59:59;;;;;;;0.60;0.60;;;;;;;2.32;100.00;94477.13;29395;236;63009;-55
2023/11/28 02:00:32;;;;;;;0.60;0.60;;;;;;;2.32;100.00;94477.13;29395;197;63004;-55
2023/11/28 02:01:04;;;;;;;0.60;0.60;;;;;;;2.38;100.00;94475.13;29395;221;63009;-55
2023/11/28 02:01:36;;;;;;;0.60;0.60;;;;;;;2.42;100.00;94470.75;29395;226;63010;-55
2023/11/28 02:02:08;;;;;;;0.60;0.60;;;;;;;2.46;100.00;94470.94;29395;356;63009;-55
2023/11/28 02:02:41;;;;;;;0.60;0.60;;;;;;;2.42;100.00;94476.13;29395;225;63005;-55
2023/11/28 02:03:15;;;;;;;0.60;0.60;;;;;;;2.40;100.00;94467.59;29394;218;64014;-55
2023/11/28 02:03:47;;;;;;;0.60;0.60;;;;;;;2.40;100.00;94466.81;29395;240;63008;-56
2023/11/28 02:04:19;;;;;;;0.60;0.60;;;;;;;2.37;100.00;94473.53;29395;263;63009;-54
2023/11/28 02:04:51;;;;;;;0.60;0.60;;;;;;;2.39;100.00;94466.00;29395;203;63005;-55
2023/11/28 02:05:22;;;;;;;0.70;0.70;;;;;;;2.43;100.00;94463.50;29395;203;63009;-55
2023/11/28 02:05:54;;;;;;;0.60;0.60;;;;;;;2.45;100.00;94464.00;29395;216;63005;-54
2023/11/28 02:06:26;;;;;;;0.60;0.60;;;;;;;2.44;100.00;94467.75;29395;225;63017;-54
2023/11/28 02:06:57;;;;;;;0.60;0.60;;;;;;;2.42;100.00;94465.41;29395;216;63009;-57
2023/11/28 02:07:29;;;;;;;0.60;0.60;;;;;;;2.41;100.00;94466.50;29395;253;63009;-55
2023/11/28 02:08:02;;;;;;;0.60;0.60;;;;;;;2.41;100.00;94474.53;29395;221;63004;-57
2023/11/28 02:08:34;;;;;;;0.60;0.60;;;;;;;2.43;100.00;94466.16;29394;220;64013;-55
2023/11/28 02:09:05;;;;;;;0.60;0.60;;;;;;;2.43;100.00;94466.97;29395;203;63004;-55
2023/11/28 02:09:39;;;;;;;0.60;0.60;;;;;;;2.43;100.00;94471.53;29395;221;63005;-55
2023/11/28 02:10:11;;;;;;;0.60;0.60;;;;;;;2.45;100.00;94464.78;29395;237;63005;-56
2023/11/28 02:10:42;;;;;;;0.60;0.60;;;;;;;2.46;100.00;94469.03;29395;237;63009;-55
2023/11/28 02:11:14;;;;;;;0.60;0.60;;;;;;;2.47;100.00;94465.28;29395;230;63005;-55
2023/11/28 02:11:45;;;;;;;0.60;0.60;;;;;;;2.46;100.00;94469.03;29394;242;64009;-54
2023/11/28 02:12:16;;;;;;;0.60;0.60;;;;;;;2.48;100.00;94463.38;29394;298;64009;-54
2023/11/28 02:12:48;;;;;;;0.60;0.60;;;;;;;2.47;100.00;94467.16;29394;225;64013;-55
2023/11/28 02:13:19;;;;;;;0.60;0.60;;;;;;;2.49;100.00;94470.31;29395;214;63005;-54
2023/11/28 02:13:51;;;;;;;0.60;0.60;;;;;;;2.44;100.00;94457.84;29395;229;63009;-54
2023/11/28 02:14:23;;;;;;;0.60;0.60;;;;;;;2.47;100.00;94465.28;29395;305;63010;-54
2023/11/28 02:14:54;;;;;;;0.60;0.60;;;;;;;2.47;100.00;94459.91;29395;197;63009;-54
2023/11/28 02:15:47;;;;;;;0.60;0.60;;;;;;;2.50;100.00;94455.84;29395;206;63004;-54
2023/11/28 02:16:18;;;;;;;0.60;0.60;;;;;;;2.49;100.00;94463.09;29394;223;64013;-55
2023/11/28 02:16:50;;;;;;;0.60;0.60;;;;;;;2.52;100.00;94459.03;29395;205;63004;-54
2023/11/28 02:17:22;;;;;;;0.60;0.60;;;;;;;2.50;100.00;94461.22;29395;212;63009;-54
2023/11/28 02:17:53;;;;;;;0.60;0.60;;;;;;;2.48;100.00;94453.47;29395;219;63005;-54
2023/11/28 02:18:25;;;;;;;0.60;0.60;;;;;;;2.50;100.00;94462.00;29395;197;63009;-55
2023/11/28 02:18:56;;;;;;;0.60;0.60;;;;;;;2.52;100.00;94459.81;29394;244;64009;-54
2023/11/28 02:19:27;;;;;;;0.60;0.60;;;;;;;2.51;100.00;94462.78;29395;232;63009;-55
2023/11/28 02:19:59;;;;;;;0.60;0.60;;;;;;;2.48;100.00;94458.03;29395;265;63005;-54
2023/11/28 02:20:30;;;;;;;0.60;0.60;;;;;;;2.46;100.00;94458.34;29395;224;63009;-55
2023/11/28 02:21:01;;;;;;;0.60;0.60;;;;;;;2.46;100.00;94455.66;29395;309;63005;-54
2023/11/28 02:21:33;;;;;;;0.60;0.60;;;;;;;2.46;100.00;94461.00;29394;202;64013;-54
2023/11/28 02:22:06;;;;;;;0.60;0.60;;;;;;;2.46;100.00;94460.22;29394;202;63995;-55
2023/11/28 02:22:37;;;;;;;0.60;0.60;;;;;;;2.50;100.00;94456.66;29395;267;63019;-54
2023/11/28 02:23:09;;;;;;;0.60;0.60;;;;;;;2.50;100.00;94462.00;29395;199;63004;-55
2023/11/28 02:23:40;;;;;;;0.60;0.60;;;;;;;2.53;100.00;94461.41;29395;211;63009;-54
2023/11/28 02:24:13;;;;;;;0.60;0.60;;;;;;;2.54;100.00;94462.19;29394;208;64008;-54
2023/11/28 02:24:48;;;;;;;0.60;0.60;;;;;;;2.52;100.00;94449.09;29395;245;63009;-54
2023/11/28 02:25:20;;;;;;;0.60;0.60;;;;;;;2.51;100.00;94452.87;29395;237;63005;-54
2023/11/28 02:25:55;;;;;;;0.60;0.60;;;;;;;2.54;100.00;94452.28;29395;208;63009;-54
2023/11/28 02:26:28;;;;;;;0.60;0.60;;;;;;;2.56;100.00;94455.44;29395;212;63005;-54
2023/11/28 02:26:59;;;;;;;0.70;0.70;;;;;;;2.63;100.00;94453.16;29394;209;64013;-53
2023/11/28 02:27:30;;;;;;;0.60;0.60;;;;;;;2.64;100.00;94459.31;29395;207;63005;-54
2023/11/28 02:28:02;;;;;;;0.60;0.60;;;;;;;2.61;100.00;94452.66;29395;219;63009;-68
2023/11/28 02:28:33;;;;;;;0.60;0.60;;;;;;;2.59;100.00;94444.13;29395;275;63004;-54
2023/11/28 02:29:05;;;;;;;0.60;0.60;;;;;;;2.57;100.00;94445.53;29394;335;64013;-55
2023/11/28 02:29:36;;;;;;;0.60;0.60;;;;;;;2.55;100.00;94448.50;29394;218;64009;-54
2023/11/28 02:30:09;;;;;;;0.60;0.60;;;;;;;2.52;100.00;94449.09;29395;216;63009;-54
2023/11/28 02:30:44;;;;;;;0.60;0.60;;;;;;;2.52;100.00;94442.97;29395;246;63004;-54
2023/11/28 02:31:16;;;;;;;0.60;0.60;;;;;;;2.61;100.00;94451.87;29395;349;63008;-54
2023/11/28 02:31:48;;;;;;;0.60;0.60;;;;;;;2.62;100.00;94446.22;29395;226;63010;-53
2023/11/28 02:32:20;;;;;;;0.60;0.60;;;;;;;2.61;100.00;94449.19;29395;225;63009;-54
2023/11/28 02:32:51;;;;;;;0.60;0.60;;;;;;;2.60;100.00;94452.97;29395;197;63001;-54